createdAt,value
2023-04-08T00:00:15.628Z,21.70
2023-04-08T00:01:15.649Z,21.70
2023-04-08T00:02:15.772Z,21.67
2023-04-08T00:03:15.856Z,21.67
2023-04-08T00:04:15.763Z,21.65
2023-04-08T00:05:15.738Z,21.68
2023-04-08T00:06:15.774Z,21.67
2023-04-08T00:07:15.811Z,21.62
2023-04-08T00:08:15.906Z,21.68
2023-04-08T00:09:15.861Z,21.68
2023-04-08T00:10:15.889Z,21.68
2023-04-08T00:11:15.917Z,21.68
2023-04-08T00:12:15.941Z,21.70
2023-04-08T00:13:16.005Z,21.68
2023-04-08T00:14:16.008Z,21.70
2023-04-08T00:15:16.026Z,21.68
2023-04-08T00:16:16.179Z,21.73
2023-04-08T00:17:16.106Z,21.71
2023-04-08T00:18:16.123Z,21.71
2023-04-08T00:19:16.169Z,21.68
2023-04-08T00:20:16.202Z,21.71
2023-04-08T00:21:16.227Z,21.73
2023-04-08T00:22:16.256Z,21.73
2023-04-08T00:23:16.291Z,21.74
2023-04-08T00:24:16.321Z,21.75
2023-04-08T00:25:16.355Z,21.65
2023-04-08T00:26:16.488Z,21.68
2023-04-08T00:27:16.426Z,21.71
2023-04-08T00:28:16.468Z,21.68
2023-04-08T00:29:16.514Z,21.71
2023-04-08T00:30:16.525Z,21.71
2023-04-08T00:31:16.604Z,21.73
2023-04-08T00:32:17.145Z,21.71
2023-04-08T00:33:17.594Z,21.73
2023-04-08T00:34:16.661Z,21.73
2023-04-08T00:36:34.918Z,21.76
2023-04-08T00:37:35.915Z,21.74
2023-04-08T00:38:35.864Z,21.74
2023-04-08T00:39:35.848Z,21.80
2023-04-08T00:40:35.835Z,21.71
2023-04-08T00:41:35.831Z,21.78
2023-04-08T00:42:35.835Z,21.73
2023-04-08T00:43:35.805Z,21.74
2023-04-08T00:44:35.826Z,21.73
2023-04-08T00:45:35.785Z,21.73
2023-04-08T00:46:35.932Z,21.70
2023-04-08T00:47:35.949Z,21.71
2023-04-08T00:48:35.867Z,21.70
2023-04-08T00:49:35.890Z,21.78
2023-04-08T00:50:35.912Z,21.75
2023-04-08T00:51:35.934Z,21.71
2023-04-08T00:52:35.974Z,21.71
2023-04-08T00:53:35.995Z,21.67
2023-04-08T00:54:36.022Z,21.76
2023-04-08T00:55:36.056Z,21.73
2023-04-08T00:56:36.102Z,21.75
2023-04-08T00:57:36.122Z,21.74
2023-04-08T00:58:36.119Z,21.76
2023-04-08T00:59:36.154Z,21.75
2023-04-08T01:00:36.195Z,21.75
2023-04-08T01:01:36.266Z,21.76
2023-04-08T01:02:36.398Z,21.78
2023-04-08T01:03:36.349Z,21.79
2023-04-08T01:04:36.273Z,21.79
2023-04-08T01:05:36.288Z,21.76
2023-04-08T01:06:36.315Z,21.75
2023-04-08T01:07:36.338Z,21.76
2023-04-08T01:08:36.388Z,21.75
2023-04-08T01:09:36.376Z,21.75
2023-04-08T01:10:36.398Z,21.78
2023-04-08T01:11:36.421Z,21.79
2023-04-08T01:12:36.504Z,21.74
2023-04-08T01:13:36.476Z,21.75
2023-04-08T01:14:36.498Z,21.76
2023-04-08T01:15:36.585Z,21.80
2023-04-08T01:16:36.570Z,21.75
2023-04-08T01:17:36.646Z,21.71
2023-04-08T01:18:36.619Z,21.73
2023-04-08T01:19:36.624Z,21.79
2023-04-08T01:20:36.642Z,21.73
2023-04-08T01:21:36.686Z,21.73
2023-04-08T01:22:36.733Z,21.78
2023-04-08T01:23:36.727Z,21.78
2023-04-08T01:24:36.755Z,21.80
2023-04-08T01:25:36.776Z,21.74
2023-04-08T01:26:36.799Z,21.75
2023-04-08T01:27:36.847Z,21.73
2023-04-08T01:28:36.842Z,21.78
2023-04-08T01:29:36.860Z,21.79
2023-04-08T01:30:36.880Z,21.76
2023-04-08T01:31:36.963Z,21.76
2023-04-08T01:32:36.999Z,21.76
2023-04-08T01:33:36.976Z,21.76
2023-04-08T01:34:36.966Z,21.79
2023-04-08T01:35:37.022Z,21.80
2023-04-08T01:36:37.011Z,21.80
2023-04-08T01:37:37.052Z,21.79
2023-04-08T01:38:37.083Z,21.80
2023-04-08T01:39:37.084Z,21.79
2023-04-08T01:40:37.123Z,21.84
2023-04-08T01:41:37.176Z,21.82
2023-04-08T01:42:37.187Z,21.82
2023-04-08T01:43:37.174Z,21.80
2023-04-08T01:44:37.198Z,21.80
2023-04-08T01:45:37.225Z,21.87
2023-04-08T01:46:37.340Z,21.78
2023-04-08T01:47:37.315Z,21.84
2023-04-08T01:48:37.335Z,21.84
2023-04-08T01:49:37.329Z,21.82
2023-04-08T01:50:37.418Z,21.78
2023-04-08T01:51:37.719Z,21.84
2023-04-08T01:52:37.397Z,21.87
2023-04-08T01:53:37.456Z,21.80
2023-04-08T01:54:37.449Z,21.84
2023-04-08T01:55:37.476Z,21.85
2023-04-08T01:56:37.496Z,21.82
2023-04-08T01:57:37.525Z,21.80
2023-04-08T01:58:37.553Z,21.80
2023-04-08T01:59:37.563Z,21.84
2023-04-08T02:00:37.582Z,21.78
2023-04-08T02:01:37.673Z,21.88
2023-04-08T02:02:37.860Z,21.84
2023-04-08T02:03:37.823Z,21.80
2023-04-08T02:04:37.792Z,21.84
2023-04-08T02:05:37.730Z,21.85
2023-04-08T02:06:37.725Z,21.84
2023-04-08T02:07:37.759Z,21.82
2023-04-08T02:08:37.834Z,21.88
2023-04-08T02:09:37.815Z,21.84
2023-04-08T02:10:37.844Z,21.80
2023-04-08T02:11:37.870Z,21.82
2023-04-08T02:12:37.912Z,21.85
2023-04-08T02:13:37.936Z,21.84
2023-04-08T02:14:37.966Z,21.90
2023-04-08T02:15:37.989Z,21.88
2023-04-08T02:16:38.095Z,21.82
2023-04-08T02:17:38.096Z,21.85
2023-04-08T02:18:38.072Z,21.85
2023-04-08T02:19:38.097Z,21.87
2023-04-08T02:20:38.142Z,21.82
2023-04-08T02:21:38.136Z,21.85
2023-04-08T02:22:38.191Z,21.85
2023-04-08T02:23:39.114Z,21.91
2023-04-08T02:24:38.214Z,21.85
2023-04-08T02:25:38.233Z,21.90
2023-04-08T02:26:38.259Z,21.90
2023-04-08T02:27:38.280Z,21.85
2023-04-08T02:28:38.308Z,21.87
2023-04-08T02:29:38.349Z,21.85
2023-04-08T02:30:38.356Z,21.84
2023-04-08T02:31:38.427Z,21.85
2023-04-08T02:32:38.501Z,21.93
2023-04-08T02:33:38.421Z,21.88
2023-04-08T02:34:38.447Z,21.91
2023-04-08T02:35:38.518Z,21.85
2023-04-08T02:36:38.514Z,21.91
2023-04-08T02:37:38.515Z,21.90
2023-04-08T02:38:38.534Z,21.84
2023-04-08T02:39:38.562Z,21.89
2023-04-08T02:40:38.601Z,21.90
2023-04-08T02:41:38.627Z,21.84
2023-04-08T02:42:38.653Z,21.87
2023-04-08T02:43:38.689Z,21.90
2023-04-08T02:44:38.724Z,21.88
2023-04-08T02:45:38.740Z,21.88
2023-04-08T02:46:38.747Z,21.88
2023-04-08T02:47:38.818Z,21.88
2023-04-08T02:48:38.800Z,21.94
2023-04-08T02:49:38.828Z,21.91
2023-04-08T02:50:38.857Z,21.93
2023-04-08T02:51:38.903Z,21.93
2023-04-08T02:52:39.009Z,21.91
2023-04-08T02:53:39.013Z,21.93
2023-04-08T02:54:38.991Z,21.93
2023-04-08T02:55:38.991Z,21.94
2023-04-08T02:56:39.019Z,21.91
2023-04-08T02:57:39.049Z,21.91
2023-04-08T02:58:39.077Z,21.91
2023-04-08T02:59:39.118Z,21.90
2023-04-08T03:00:39.220Z,21.93
2023-04-08T03:01:39.201Z,21.96
2023-04-08T03:02:39.278Z,21.99
2023-04-08T03:03:39.391Z,21.96
2023-04-08T03:04:39.233Z,21.98
2023-04-08T03:05:39.296Z,21.94
2023-04-08T03:06:39.288Z,21.90
2023-04-08T03:07:39.317Z,21.94
2023-04-08T03:08:39.393Z,21.91
2023-04-08T03:09:39.373Z,21.91
2023-04-08T03:10:39.393Z,21.91
2023-04-08T03:11:39.411Z,21.94
2023-04-08T03:12:39.466Z,21.93
2023-04-08T03:13:39.471Z,21.98
2023-04-08T03:14:39.500Z,21.96
2023-04-08T03:15:39.533Z,21.94
2023-04-08T03:16:39.564Z,21.94
2023-04-08T03:17:39.652Z,21.96
2023-04-08T03:18:39.617Z,21.99
2023-04-08T03:19:39.647Z,21.93
2023-04-08T03:20:39.674Z,21.96
2023-04-08T03:21:39.727Z,21.96
2023-04-08T03:22:39.802Z,21.96
2023-04-08T03:23:39.768Z,21.96
2023-04-08T03:24:39.822Z,21.98
2023-04-08T03:25:39.821Z,21.94
2023-04-08T03:26:39.850Z,21.99
2023-04-08T03:27:39.878Z,21.89
2023-04-08T03:28:39.959Z,21.96
2023-04-08T03:29:39.920Z,21.93
2023-04-08T03:30:39.951Z,21.91
2023-04-08T03:31:40.030Z,21.95
2023-04-08T03:32:40.055Z,21.96
2023-04-08T03:33:40.040Z,21.96
2023-04-08T03:34:40.063Z,21.99
2023-04-08T03:35:40.144Z,21.98
2023-04-08T03:36:40.129Z,21.94
2023-04-08T03:37:40.150Z,22.01
2023-04-08T03:38:40.187Z,22.02
2023-04-08T03:39:40.195Z,21.98
2023-04-08T03:40:40.256Z,22.02
2023-04-08T03:41:40.249Z,22.02
2023-04-08T03:42:40.281Z,21.99
2023-04-08T03:43:40.309Z,22.02
2023-04-08T03:44:40.359Z,21.96
2023-04-08T03:45:40.387Z,21.99
2023-04-08T03:46:40.403Z,22.02
2023-04-08T03:47:40.430Z,21.99
2023-04-08T03:48:40.445Z,22.01
2023-04-08T03:49:40.479Z,21.98
2023-04-08T03:50:40.500Z,22.02
2023-04-08T03:51:40.537Z,21.99
2023-04-08T03:52:40.613Z,21.96
2023-04-08T03:53:40.589Z,21.98
2023-04-08T03:54:40.614Z,21.99
2023-04-08T03:55:40.655Z,22.01
2023-04-08T03:56:40.683Z,22.01
2023-04-08T03:57:40.724Z,22.01
2023-04-08T03:58:40.715Z,22.01
2023-04-08T03:59:40.770Z,21.94
2023-04-08T04:00:40.801Z,22.02
2023-04-08T04:01:42.018Z,22.05
2023-04-08T04:02:40.885Z,21.99
2023-04-08T04:03:41.049Z,21.96
2023-04-08T04:04:40.948Z,22.01
2023-04-08T04:05:40.969Z,22.02
2023-04-08T04:06:40.965Z,21.94
2023-04-08T04:07:40.980Z,22.02
2023-04-08T04:08:41.013Z,22.02
2023-04-08T04:09:41.051Z,22.04
2023-04-08T04:10:41.074Z,22.08
2023-04-08T04:11:41.112Z,22.07
2023-04-08T04:12:41.199Z,22.07
2023-04-08T04:13:41.169Z,22.01
2023-04-08T04:14:41.230Z,22.02
2023-04-08T04:15:41.266Z,22.04
2023-04-08T04:16:41.258Z,22.01
2023-04-08T04:17:41.307Z,21.98
2023-04-08T04:18:41.341Z,22.07
2023-04-08T04:19:41.342Z,22.07
2023-04-08T04:20:41.368Z,22.02
2023-04-08T04:21:41.398Z,22.04
2023-04-08T04:22:41.447Z,22.01
2023-04-08T04:23:41.457Z,22.02
2023-04-08T04:24:41.482Z,22.04
2023-04-08T04:25:41.511Z,22.04
2023-04-08T04:26:41.547Z,22.05
2023-04-08T04:27:41.576Z,22.01
2023-04-08T04:28:41.629Z,22.04
2023-04-08T04:29:41.649Z,22.05
2023-04-08T04:30:41.653Z,22.05
2023-04-08T04:31:41.739Z,22.09
2023-04-08T04:32:41.734Z,22.01
2023-04-08T04:33:41.747Z,21.99
2023-04-08T04:34:41.796Z,22.01
2023-04-08T04:35:41.835Z,22.05
2023-04-08T04:36:41.826Z,22.04
2023-04-08T04:37:41.894Z,22.05
2023-04-08T04:38:41.888Z,22.09
2023-04-08T04:39:41.917Z,22.07
2023-04-08T04:40:41.958Z,22.10
2023-04-08T04:41:41.979Z,22.07
2023-04-08T04:42:42.007Z,22.05
2023-04-08T04:43:42.043Z,22.04
2023-04-08T04:44:42.087Z,22.05
2023-04-08T04:45:42.105Z,22.04
2023-04-08T04:46:42.135Z,22.09
2023-04-08T04:47:42.194Z,22.09
2023-04-08T04:48:42.182Z,22.05
2023-04-08T04:49:42.219Z,22.07
2023-04-08T04:50:42.264Z,22.07
2023-04-08T04:51:42.278Z,22.07
2023-04-08T04:52:42.344Z,22.04
2023-04-08T04:53:42.334Z,22.10
2023-04-08T04:54:42.374Z,22.01
2023-04-08T04:55:42.399Z,22.06
2023-04-08T04:56:42.431Z,22.05
2023-04-08T04:57:42.485Z,22.01
2023-04-08T04:58:42.484Z,22.10
2023-04-08T04:59:42.518Z,22.04
2023-04-08T05:00:42.572Z,22.05
2023-04-08T05:01:42.653Z,22.05
2023-04-08T05:02:42.738Z,22.15
2023-04-08T05:03:42.681Z,22.04
2023-04-08T05:04:42.695Z,22.07
2023-04-08T05:05:42.695Z,22.06
2023-04-08T05:06:42.722Z,22.10
2023-04-08T05:07:42.747Z,22.10
2023-04-08T05:08:42.783Z,22.07
2023-04-08T05:09:42.794Z,22.10
2023-04-08T05:10:42.819Z,22.07
2023-04-08T05:11:42.847Z,22.10
2023-04-08T05:12:42.868Z,22.06
2023-04-08T05:13:42.901Z,22.10
2023-04-08T05:14:42.920Z,22.04
2023-04-08T05:15:43.000Z,22.07
2023-04-08T05:16:43.004Z,22.10
2023-04-08T05:17:43.083Z,22.07
2023-04-08T05:18:43.022Z,22.07
2023-04-08T05:19:43.052Z,22.13
2023-04-08T05:20:43.084Z,22.09
2023-04-08T05:21:43.114Z,22.12
2023-04-08T05:22:43.124Z,22.07
2023-04-08T05:23:43.151Z,22.07
2023-04-08T05:24:43.188Z,22.09
2023-04-08T05:25:43.206Z,22.12
2023-04-08T05:26:43.222Z,22.09
2023-04-08T05:27:43.253Z,22.09
2023-04-08T05:28:43.289Z,22.07
2023-04-08T05:29:43.371Z,22.10
2023-04-08T05:30:43.333Z,22.12
2023-04-08T05:31:43.455Z,22.12
2023-04-08T05:32:43.422Z,22.15
2023-04-08T05:33:43.390Z,22.06
2023-04-08T05:34:43.413Z,22.09
2023-04-08T05:35:43.468Z,22.09
2023-04-08T05:36:43.462Z,22.10
2023-04-08T05:37:43.506Z,22.09
2023-04-08T05:38:43.512Z,22.12
2023-04-08T05:39:43.544Z,22.13
2023-04-08T05:40:43.564Z,22.10
2023-04-08T05:41:43.574Z,22.09
2023-04-08T05:42:43.600Z,22.12
2023-04-08T05:43:43.627Z,22.13
2023-04-08T05:44:43.656Z,22.13
2023-04-08T05:45:43.695Z,22.13
2023-04-08T05:46:43.776Z,22.12
2023-04-08T05:47:43.832Z,22.10
2023-04-08T05:48:43.787Z,22.10
2023-04-08T05:49:43.796Z,22.12
2023-04-08T05:50:43.843Z,22.15
2023-04-08T05:51:43.838Z,22.12
2023-04-08T05:52:43.858Z,22.06
2023-04-08T05:53:43.899Z,22.12
2023-04-08T05:54:43.913Z,22.10
2023-04-08T05:55:43.931Z,22.16
2023-04-08T05:56:43.952Z,22.10
2023-04-08T05:57:43.972Z,22.15
2023-04-08T05:58:43.995Z,22.13
2023-04-08T05:59:44.175Z,22.16
2023-04-08T06:00:44.049Z,22.12
2023-04-08T06:01:44.140Z,22.15
2023-04-08T06:02:44.271Z,22.12
2023-04-08T06:03:44.431Z,22.16
2023-04-08T06:04:44.414Z,22.10
2023-04-08T06:05:44.165Z,22.16
2023-04-08T06:06:44.195Z,22.13
2023-04-08T06:07:44.259Z,22.13
2023-04-08T06:08:44.255Z,22.09
2023-04-08T06:09:45.362Z,22.10
2023-04-08T06:10:44.308Z,22.13
2023-04-08T06:11:44.335Z,22.15
2023-04-08T06:12:44.375Z,22.15
2023-04-08T06:13:44.377Z,22.19
2023-04-08T06:14:44.407Z,22.13
2023-04-08T06:15:44.431Z,22.13
2023-04-08T06:16:44.494Z,22.12
2023-04-08T06:17:44.557Z,22.15
2023-04-08T06:18:44.514Z,22.12
2023-04-08T06:19:44.534Z,22.15
2023-04-08T06:20:44.621Z,22.13
2023-04-08T06:21:44.610Z,22.12
2023-04-08T06:22:44.597Z,22.12
2023-04-08T06:23:44.624Z,22.13
2023-04-08T06:24:44.624Z,22.13
2023-04-08T06:25:44.681Z,22.13
2023-04-08T06:26:44.839Z,22.18
2023-04-08T06:27:44.675Z,22.10
2023-04-08T06:28:44.662Z,22.19
2023-04-08T06:29:44.669Z,22.13
2023-04-08T06:30:44.649Z,22.16
2023-04-08T06:31:44.685Z,22.13
2023-04-08T06:32:44.719Z,22.12
2023-04-08T06:33:44.692Z,22.18
2023-04-08T06:34:44.704Z,22.13
2023-04-08T06:35:44.713Z,22.16
2023-04-08T06:36:44.734Z,22.16
2023-04-08T06:37:44.714Z,22.15
2023-04-08T06:38:44.694Z,22.16
2023-04-08T06:39:44.728Z,22.18
2023-04-08T06:40:44.684Z,22.15
2023-04-08T06:41:44.702Z,22.15
2023-04-08T06:42:44.672Z,22.20
2023-04-08T06:43:44.686Z,22.12
2023-04-08T06:44:44.685Z,22.21
2023-04-08T06:45:44.749Z,22.16
2023-04-08T06:46:44.679Z,22.14
2023-04-08T06:47:44.707Z,22.13
2023-04-08T06:48:44.710Z,22.16
2023-04-08T06:49:44.705Z,22.14
2023-04-08T06:50:44.728Z,22.15
2023-04-08T06:51:44.729Z,22.15
2023-04-08T06:52:44.774Z,22.17
2023-04-08T06:53:44.748Z,22.13
2023-04-08T06:54:44.754Z,22.14
2023-04-08T06:55:44.745Z,22.17
2023-04-08T06:56:44.769Z,22.17
2023-04-08T06:57:44.728Z,22.15
2023-04-08T06:58:44.712Z,22.14
2023-04-08T06:59:44.733Z,22.20
2023-04-08T07:00:44.723Z,22.18
2023-04-08T07:01:44.771Z,22.17
2023-04-08T07:02:44.895Z,22.15
2023-04-08T07:03:44.840Z,22.15
2023-04-08T07:04:46.711Z,22.15
2023-04-08T07:05:44.720Z,22.18
2023-04-08T07:06:44.734Z,22.12
2023-04-08T07:07:44.657Z,22.12
2023-04-08T07:08:44.666Z,22.12
2023-04-08T07:09:44.641Z,22.17
2023-04-08T07:10:44.618Z,22.17
2023-04-08T07:11:44.607Z,22.17
2023-04-08T07:12:44.595Z,22.15
2023-04-08T07:13:44.574Z,22.18
2023-04-08T07:14:44.569Z,22.17
2023-04-08T07:15:44.563Z,22.14
2023-04-08T07:16:44.559Z,22.18
2023-04-08T07:17:44.559Z,22.14
2023-04-08T07:18:44.508Z,22.17
2023-04-08T07:19:44.490Z,22.14
2023-04-08T07:20:44.478Z,22.15
2023-04-08T07:21:44.464Z,22.20
2023-04-08T07:22:44.449Z,22.14
2023-04-08T07:23:44.447Z,22.12
2023-04-08T07:24:44.447Z,22.17
2023-04-08T07:25:44.413Z,22.20
2023-04-08T07:26:44.394Z,22.20
2023-04-08T07:27:44.414Z,22.14
2023-04-08T07:28:44.369Z,22.22
2023-04-08T07:29:44.386Z,22.17
2023-04-08T07:30:44.350Z,22.17
2023-04-08T07:31:44.330Z,22.15
2023-04-08T07:32:44.329Z,22.21
2023-04-08T07:33:44.286Z,22.17
2023-04-08T07:34:44.305Z,22.20
2023-04-08T07:35:44.299Z,22.24
2023-04-08T07:36:44.223Z,22.23
2023-04-08T07:37:44.212Z,22.17
2023-04-08T07:38:44.209Z,22.23
2023-04-08T07:39:44.179Z,22.23
2023-04-08T07:40:44.199Z,22.17
2023-04-08T07:41:44.150Z,22.21
2023-04-08T07:42:44.130Z,22.23
2023-04-08T07:43:44.121Z,22.20
2023-04-08T07:44:44.093Z,22.23
2023-04-08T07:45:44.112Z,22.23
2023-04-08T07:46:44.052Z,22.21
2023-04-08T07:47:44.097Z,22.18
2023-04-08T07:48:44.051Z,22.23
2023-04-08T07:49:44.004Z,22.24
2023-04-08T07:51:08.401Z,22.18
2023-04-08T07:51:43.976Z,22.24
2023-04-08T07:52:43.964Z,22.20
2023-04-08T07:53:43.960Z,22.20
2023-04-08T07:54:43.964Z,22.26
2023-04-08T07:55:43.940Z,22.18
2023-04-08T07:56:43.924Z,22.24
2023-04-08T07:57:43.923Z,22.24
2023-04-08T07:58:43.866Z,22.21
2023-04-08T07:59:43.898Z,22.23
2023-04-08T08:00:43.863Z,22.24
2023-04-08T08:01:43.869Z,22.23
2023-04-08T08:02:43.843Z,22.24
2023-04-08T08:03:44.031Z,22.26
2023-04-08T08:04:43.848Z,22.21
2023-04-08T08:05:43.763Z,22.26
2023-04-08T08:06:43.743Z,22.22
2023-04-08T08:07:43.719Z,22.20
2023-04-08T08:08:43.725Z,22.17
2023-04-08T08:09:43.688Z,22.22
2023-04-08T08:10:43.678Z,22.24
2023-04-08T08:11:43.669Z,22.23
2023-04-08T08:12:43.713Z,22.20
2023-04-08T08:13:43.648Z,22.20
2023-04-08T08:14:43.631Z,22.24
2023-04-08T08:15:43.679Z,22.28
2023-04-08T08:16:43.603Z,22.26
2023-04-08T08:17:43.738Z,22.24
2023-04-08T08:18:43.577Z,22.22
2023-04-08T08:19:43.561Z,22.22
2023-04-08T08:20:43.555Z,22.24
2023-04-08T08:21:43.532Z,22.28
2023-04-08T08:22:54.567Z,22.26
2023-04-08T08:23:43.494Z,22.20
2023-04-08T08:24:43.480Z,22.23
2023-04-08T08:25:43.475Z,22.24
2023-04-08T08:26:43.454Z,22.26
2023-04-08T08:27:43.443Z,22.28
2023-04-08T08:28:43.451Z,22.26
2023-04-08T08:29:43.415Z,22.24
2023-04-08T08:30:43.401Z,22.26
2023-04-08T08:31:43.520Z,22.26
2023-04-08T08:32:43.424Z,22.23
2023-04-08T08:33:43.369Z,22.24
2023-04-08T08:34:43.360Z,22.23
2023-04-08T08:35:43.395Z,22.26
2023-04-08T08:36:43.335Z,22.25
2023-04-08T08:37:43.322Z,22.23
2023-04-08T08:38:43.320Z,22.26
2023-04-08T08:39:43.285Z,22.29
2023-04-08T08:40:43.272Z,22.23
2023-04-08T08:41:43.265Z,22.26
2023-04-08T08:42:43.261Z,22.28
2023-04-08T08:43:43.240Z,22.23
2023-04-08T08:44:43.249Z,22.29
2023-04-08T08:45:43.223Z,22.29
2023-04-08T08:46:43.215Z,22.23
2023-04-08T08:47:43.215Z,22.28
2023-04-08T08:48:43.185Z,22.28
2023-04-08T08:49:43.171Z,22.26
2023-04-08T08:50:43.146Z,22.28
2023-04-08T08:51:43.119Z,22.25
2023-04-08T08:52:43.105Z,22.25
2023-04-08T08:53:43.094Z,22.25
2023-04-08T08:54:43.074Z,22.25
2023-04-08T08:56:43.044Z,22.31
2023-04-08T08:57:43.027Z,22.28
2023-04-08T08:58:43.013Z,22.31
2023-04-08T08:59:42.991Z,22.29
2023-04-08T09:00:43.001Z,22.28
2023-04-08T09:01:43.053Z,22.31
2023-04-08T09:02:43.123Z,22.25
2023-04-08T09:03:43.129Z,22.29
2023-04-08T09:04:43.142Z,22.26
2023-04-08T09:05:43.069Z,22.31
2023-04-08T09:06:42.884Z,22.34
2023-04-08T09:07:42.861Z,22.28
2023-04-08T09:08:42.849Z,22.26
2023-04-08T09:09:42.832Z,22.29
2023-04-08T09:10:42.811Z,22.29
2023-04-08T09:11:42.805Z,22.33
2023-04-08T09:12:42.781Z,22.28
2023-04-08T09:13:42.767Z,22.28
2023-04-08T09:14:42.745Z,22.31
2023-04-08T09:15:42.765Z,22.29
2023-04-08T09:16:42.870Z,22.31
2023-04-08T09:17:42.735Z,22.31
2023-04-08T09:18:42.710Z,22.25
2023-04-08T09:19:42.679Z,22.28
2023-04-08T09:20:42.669Z,22.29
2023-04-08T09:21:42.652Z,22.33
2023-04-08T09:22:42.636Z,22.33
2023-04-08T09:23:42.627Z,22.31
2023-04-08T09:24:42.602Z,22.29
2023-04-08T09:25:42.602Z,22.29
2023-04-08T09:26:42.582Z,22.29
2023-04-08T09:27:42.574Z,22.31
2023-04-08T09:28:42.561Z,22.29
2023-04-08T09:29:42.536Z,22.35
2023-04-08T09:30:42.529Z,22.31
2023-04-08T09:31:42.548Z,22.37
2023-04-08T09:32:42.538Z,22.34
2023-04-08T09:33:42.506Z,22.35
2023-04-08T09:34:42.472Z,22.35
2023-04-08T09:35:42.522Z,22.40
2023-04-08T09:36:42.499Z,22.38
2023-04-08T09:37:42.511Z,22.37
2023-04-08T09:38:42.537Z,22.35
2023-04-08T09:39:42.575Z,22.32
2023-04-08T09:40:42.578Z,22.38
2023-04-08T09:41:42.597Z,22.38
2023-04-08T09:42:43.269Z,22.35
2023-04-08T09:43:42.628Z,22.38
2023-04-08T09:44:42.644Z,22.37
2023-04-08T09:45:42.749Z,22.38
2023-04-08T09:46:42.679Z,22.43
2023-04-08T09:47:42.746Z,22.38
2023-04-08T09:48:42.743Z,22.41
2023-04-08T09:49:42.732Z,22.32
2023-04-08T09:50:42.770Z,22.33
2023-04-08T09:51:42.785Z,22.43
2023-04-08T09:52:42.817Z,22.41
2023-04-08T09:53:42.839Z,22.40
2023-04-08T09:54:42.853Z,22.37
2023-04-08T09:55:42.878Z,22.41
2023-04-08T09:56:42.922Z,22.41
2023-04-08T09:57:42.917Z,22.41
2023-04-08T09:58:42.938Z,22.41
2023-04-08T09:59:42.956Z,22.38
2023-04-08T10:00:43.018Z,22.49
2023-04-08T10:01:43.164Z,22.43
2023-04-08T10:02:43.277Z,22.44
2023-04-08T10:03:43.142Z,22.43
2023-04-08T10:04:43.164Z,22.41
2023-04-08T10:05:43.078Z,22.41
2023-04-08T10:06:43.105Z,22.47
2023-04-08T10:07:43.128Z,22.47
2023-04-08T10:08:43.142Z,22.50
2023-04-08T10:09:43.163Z,22.45
2023-04-08T10:10:43.170Z,22.45
2023-04-08T10:11:43.193Z,22.47
2023-04-08T10:12:43.221Z,22.48
2023-04-08T10:13:43.252Z,22.55
2023-04-08T10:14:43.266Z,22.52
2023-04-08T10:15:43.305Z,22.53
2023-04-08T10:16:43.331Z,22.50
2023-04-08T10:17:43.353Z,22.47
2023-04-08T10:18:43.362Z,22.50
2023-04-08T10:19:43.382Z,22.49
2023-04-08T10:20:43.439Z,22.56
2023-04-08T10:21:43.457Z,22.53
2023-04-08T10:22:43.484Z,22.50
2023-04-08T10:23:43.537Z,22.50
2023-04-08T10:24:43.548Z,22.53
2023-04-08T10:25:43.589Z,22.55
2023-04-08T10:26:43.616Z,22.50
2023-04-08T10:27:43.653Z,22.50
2023-04-08T10:28:43.678Z,22.53
2023-04-08T10:29:43.713Z,22.50
2023-04-08T10:30:43.741Z,22.50
2023-04-08T10:31:43.800Z,22.47
2023-04-08T10:32:43.850Z,22.50
2023-04-08T10:33:43.842Z,22.53
2023-04-08T10:34:43.874Z,22.47
2023-04-08T10:35:43.960Z,22.51
2023-04-08T10:36:43.968Z,22.47
2023-04-08T10:37:43.977Z,22.55
2023-04-08T10:38:44.015Z,22.50
2023-04-08T10:39:44.040Z,22.47
2023-04-08T10:40:44.098Z,22.48
2023-04-08T10:41:44.115Z,22.47
2023-04-08T10:42:44.145Z,22.47
2023-04-08T10:43:44.175Z,22.44
2023-04-08T10:44:44.210Z,22.50
2023-04-08T10:45:46.503Z,22.48
2023-04-08T10:46:44.226Z,22.50
2023-04-08T10:47:44.269Z,22.50
2023-04-08T10:48:44.211Z,22.47
2023-04-08T10:49:44.193Z,22.50
2023-04-08T10:50:44.181Z,22.50
2023-04-08T10:51:44.179Z,22.50
2023-04-08T10:52:44.232Z,22.50
2023-04-08T10:53:44.138Z,22.52
2023-04-08T10:54:44.130Z,22.53
2023-04-08T10:55:44.112Z,22.47
2023-04-08T10:56:44.122Z,22.48
2023-04-08T10:57:44.082Z,22.50
2023-04-08T10:58:44.066Z,22.49
2023-04-08T10:59:44.052Z,22.56
2023-04-08T11:00:44.039Z,22.50
2023-04-08T11:01:44.103Z,22.47
2023-04-08T11:02:44.152Z,22.50
2023-04-08T11:03:44.186Z,22.52
2023-04-08T11:04:44.079Z,22.50
2023-04-08T11:05:44.113Z,22.47
2023-04-08T11:06:44.143Z,22.43
2023-04-08T11:07:44.142Z,22.44
2023-04-08T11:08:44.182Z,22.47
2023-04-08T11:09:44.192Z,22.51
2023-04-08T11:10:44.201Z,22.46
2023-04-08T11:11:44.231Z,22.52
2023-04-08T11:12:44.253Z,22.48
2023-04-08T11:13:52.080Z,22.47
2023-04-08T11:14:44.260Z,22.49
2023-04-08T11:15:44.311Z,22.49
2023-04-08T11:16:44.241Z,22.51
2023-04-08T11:17:44.241Z,22.49
2023-04-08T11:18:44.214Z,22.49
2023-04-08T11:19:44.206Z,22.52
2023-04-08T11:20:44.211Z,22.52
2023-04-08T11:21:44.177Z,22.51
2023-04-08T11:22:44.182Z,22.49
2023-04-08T11:23:44.176Z,22.51
2023-04-08T11:24:44.186Z,22.46
2023-04-08T11:25:44.147Z,22.51
2023-04-08T11:26:44.133Z,22.51
2023-04-08T11:27:44.149Z,22.52
2023-04-08T11:28:44.123Z,22.49
2023-04-08T11:29:44.120Z,22.51
2023-04-08T11:30:44.143Z,22.46
2023-04-08T11:31:44.567Z,22.54
2023-04-08T11:32:44.110Z,22.54
2023-04-08T11:33:44.083Z,22.51
2023-04-08T11:34:44.075Z,22.54
2023-04-08T11:35:44.123Z,22.48
2023-04-08T11:36:44.053Z,22.51
2023-04-08T11:37:44.047Z,22.51
2023-04-08T11:38:44.031Z,22.49
2023-04-08T11:39:44.020Z,22.51
2023-04-08T11:40:44.031Z,22.57
2023-04-08T11:41:43.997Z,22.48
2023-04-08T11:42:46.012Z,22.51
2023-04-08T11:43:43.968Z,22.54
2023-04-08T11:44:43.962Z,22.52
2023-04-08T11:45:43.956Z,22.52
2023-04-08T11:46:43.971Z,22.52
2023-04-08T11:47:43.962Z,22.49
2023-04-08T11:48:43.916Z,22.51
2023-04-08T11:49:43.897Z,22.49
2023-04-08T11:50:43.897Z,22.49
2023-04-08T11:51:43.868Z,22.49
2023-04-08T11:52:43.855Z,22.54
2023-04-08T11:53:43.843Z,22.48
2023-04-08T11:54:43.825Z,22.54
2023-04-08T11:55:43.805Z,22.56
2023-04-08T11:56:43.816Z,22.52
2023-04-08T11:57:43.775Z,22.51
2023-04-08T11:58:43.757Z,22.52
2023-04-08T11:59:43.743Z,22.49
2023-04-08T12:00:43.770Z,22.51
2023-04-08T12:01:43.822Z,22.49
2023-04-08T12:02:43.768Z,22.49
2023-04-08T12:03:43.815Z,22.51
2023-04-08T12:04:43.686Z,22.51
2023-04-08T12:05:43.669Z,22.45
2023-04-08T12:06:43.688Z,22.51
2023-04-08T12:07:43.652Z,22.46
2023-04-08T12:08:43.635Z,22.53
2023-04-08T12:09:43.608Z,22.48
2023-04-08T12:10:43.598Z,22.49
2023-04-08T12:11:43.584Z,22.49
2023-04-08T12:12:43.602Z,22.48
2023-04-08T12:13:43.570Z,22.48
2023-04-08T12:14:43.552Z,22.53
2023-04-08T12:15:43.564Z,22.53
2023-04-08T12:16:43.573Z,22.51
2023-04-08T12:17:43.647Z,22.49
2023-04-08T12:18:43.523Z,22.54
2023-04-08T12:19:43.521Z,22.54
2023-04-08T12:20:43.496Z,22.43
2023-04-08T12:21:43.488Z,22.54
2023-04-08T12:22:43.487Z,22.54
2023-04-08T12:23:43.460Z,22.53
2023-04-08T12:24:43.449Z,22.49
2023-04-08T12:25:43.438Z,22.49
2023-04-08T12:26:43.439Z,22.48
2023-04-08T12:27:43.415Z,22.48
2023-04-08T12:28:43.438Z,22.46
2023-04-08T12:29:43.402Z,22.48
2023-04-08T12:30:43.387Z,22.50
2023-04-08T12:31:43.391Z,22.48
2023-04-08T12:32:43.435Z,22.47
2023-04-08T12:33:43.420Z,22.47
2023-04-08T12:34:43.422Z,22.50
2023-04-08T12:35:43.469Z,22.51
2023-04-08T12:36:43.445Z,22.51
2023-04-08T12:37:43.461Z,22.50
2023-04-08T12:38:43.474Z,22.53
2023-04-08T12:39:43.500Z,22.51
2023-04-08T12:40:43.501Z,22.51
2023-04-08T12:41:43.514Z,22.53
2023-04-08T12:42:43.523Z,22.51
2023-04-08T12:43:43.539Z,22.51
2023-04-08T12:44:43.574Z,22.59
2023-04-08T12:45:43.580Z,22.51
2023-04-08T12:46:43.594Z,22.54
2023-04-08T12:47:43.620Z,22.53
2023-04-08T12:48:43.825Z,22.59
2023-04-08T12:49:49.556Z,22.53
2023-04-08T12:50:43.584Z,22.48
2023-04-08T12:51:43.552Z,22.54
2023-04-08T12:52:43.547Z,22.45
2023-04-08T12:53:43.532Z,22.48
2023-04-08T12:54:43.531Z,22.51